Latest METAR Data

Below are the latest METARs ("Meteorological Services to Airmen Reports"), for RNAS Culdrose and Newquay Airport.

EGDR - RNAS Culdrose
Distance from station: SW 6mi, 9km
Updated: Thu, 18-Apr-2024 5:20pm BST
Partly Cloudy
Partly Cloudy
 Wind from WSW
Wind: WSW 14 mph , 22 km/h
Temperature: 52°F , 11°C
Dew Point: 41°F , 5°C
Humidity: 67%
Barometer: 30.27 inHg , 1025 hPa
Clouds: Partly Cloudy
Visibility: 6 miles , 10 km
Cloud details: Few Clouds 3000 ft
Partly Cloudy 16000 ft
2024/04/18 16:20 EGDR 181620Z 25012KT 9999 FEW030 SCT160 11/05 Q1025 NOSIG RMK BLU BLU
EGHQ - Newquay Airport
Distance from station: NE 21mi, 34km
Updated: Thu, 18-Apr-2024 5:20pm BST
Few Clouds
Few Clouds
 Wind from W
Wind: W 13 mph , 20 km/h
Temperature: 50°F , 10°C
Wind Chill: 45°F , 7°C
Dew Point: 41°F , 5°C
Humidity: 71%
Barometer: 30.27 inHg , 1025 hPa
Clouds: Few Clouds
Visibility: 6 miles , 10 km
Cloud details: Few Clouds 2500 ft
2024/04/18 16:20 EGHQ 181620Z 28011KT 9999 FEW025 10/05 Q1025
 
EGTE - Exeter Airport
Distance from station: ENE 88mi, 141km
Updated: Thu, 18-Apr-2024 5:20pm BST
Few Clouds
Few Clouds
 Wind from SSW
Wind: SSW 6 mph , 9 km/h
Temperature: 57°F , 14°C
Dew Point: 41°F , 5°C
Humidity: 55%
Barometer: 30.21 inHg , 1023 hPa
Clouds: Few Clouds
Visibility: 6 miles , 10 km
Cloud details: Few Clouds 4000 ft
2024/04/18 16:20 EGTE 181620Z 21005KT 150V310 9999 FEW040 14/05 Q1023
EGHE - St Marys, IOS
Distance from station: W 51mi, 82km
Updated: Thu, 18-Apr-2024 5:20pm BST
Few Clouds
Few Clouds
 Wind from W
Wind: W 9 mph , 15 km/h
Temperature: 54°F , 12°C
Dew Point: 39°F , 4°C
Humidity: 58%
Barometer: 30.3 inHg , 1026 hPa
Clouds: Few Clouds
Visibility: 6 miles , 10 km
Cloud details: Few Clouds 2000 ft
2024/04/18 16:20 EGHE 181620Z 27008KT 9999 FEW020 12/04 Q1026

Metar display script from Saratoga-Weather.org

 

 

UK - WEATHER STATION TOPSITES - UK

Copyright © Carnkie Weather 2009 - 2024.